Gifu, Gifu Air Field (RJNG)

NameGifu Air Field
CityGifu
CountryJapan
ICAORJNG
IATAQGU
Altitude39 m
CoordinatesGoogle Map
Live Air TrafficLiveATC.net
METARRJNG 042249Z 09003KT 070V140 9999 MIFG FEW008 BKN045 04/03 Q1025 RMK 1ST008 5SC045 A3027
2019-12-04 22:49:00 Wind: East (90°) 1.54 m/s - Visibility: > 10000 m - Weather: Shallow Fog - Temperature: 4 °C - Dew point: 3 °C - Humidity: 93.3% - Pressure: 1025 hPa
Statistics

The table below shows the detailed information of all flights to/from Gifu, Gifu Air Field (RJNG).